createdAt,value
2022-08-26T00:01:54.433Z,100953.09
2022-08-26T00:04:25.302Z,100963.81
2022-08-26T00:06:54.405Z,100955.34
2022-08-26T00:09:22.250Z,100955.69
2022-08-26T00:11:49.678Z,100956.19
2022-08-26T00:14:18.320Z,100949.78
2022-08-26T00:16:47.645Z,100946.09
2022-08-26T00:19:20.786Z,100945.59
2022-08-26T00:21:49.840Z,100953.50
2022-08-26T00:24:20.846Z,100950.81
2022-08-26T00:26:49.655Z,100943.66
2022-08-26T00:29:17.862Z,100949.00
2022-08-26T00:31:45.643Z,100945.66
2022-08-26T00:34:15.335Z,100953.28
2022-08-26T00:36:43.488Z,100951.06
2022-08-26T00:39:11.553Z,100946.13
2022-08-26T00:41:40.982Z,100953.53
2022-08-26T00:44:11.050Z,100947.78
2022-08-26T00:46:49.000Z,100952.63
2022-08-26T00:49:21.607Z,100945.44
2022-08-26T00:51:55.467Z,100946.63
2022-08-26T00:54:27.318Z,100946.63
2022-08-26T00:56:56.497Z,100938.19
2022-08-26T00:59:25.295Z,100940.88
2022-08-26T01:01:53.305Z,100943.59
2022-08-26T01:04:22.804Z,100944.63
2022-08-26T01:06:53.715Z,100934.84
2022-08-26T01:09:23.149Z,100936.75
2022-08-26T01:11:55.173Z,100933.66
2022-08-26T01:14:24.375Z,100932.59
2022-08-26T01:16:51.635Z,100923.50
2022-08-26T01:19:26.944Z,100922.34
2022-08-26T01:22:10.488Z,100922.34
2022-08-26T01:24:40.395Z,100921.03
2022-08-26T01:27:10.564Z,100922.13
2022-08-26T01:29:40.831Z,100920.47
2022-08-26T01:32:10.857Z,100918.13
2022-08-26T01:34:39.824Z,100909.78
2022-08-26T01:37:18.432Z,100913.59
2022-08-26T01:39:50.044Z,100906.69
2022-08-26T01:42:19.932Z,100910.06
2022-08-26T01:44:59.297Z,100912.72
2022-08-26T01:47:29.949Z,100914.13
2022-08-26T01:50:03.044Z,100918.06
2022-08-26T01:52:33.554Z,100916.34
2022-08-26T01:55:01.083Z,100917.03
2022-08-26T01:57:29.053Z,100921.25
2022-08-26T02:00:00.083Z,100915.16
2022-08-26T02:02:27.844Z,100915.13
2022-08-26T02:05:03.439Z,100910.47
2022-08-26T02:07:33.272Z,100915.53
2022-08-26T02:10:00.723Z,100918.44
2022-08-26T02:12:28.295Z,100917.69
2022-08-26T02:14:59.285Z,100913.50
2022-08-26T02:17:37.318Z,100924.69
2022-08-26T02:20:07.068Z,100914.56
2022-08-26T02:22:41.470Z,100926.50
2022-08-26T02:25:30.944Z,100928.56
2022-08-26T02:27:58.215Z,100929.91
2022-08-26T02:30:32.051Z,100937.31
2022-08-26T02:33:03.766Z,100931.91
2022-08-26T02:35:32.964Z,100928.34
2022-08-26T02:38:01.159Z,100926.88
2022-08-26T02:40:34.816Z,100935.31
2022-08-26T02:43:03.306Z,100935.34
2022-08-26T02:45:30.953Z,100941.41
2022-08-26T02:47:58.721Z,100935.97
2022-08-26T02:50:27.422Z,100930.56
2022-08-26T02:52:55.467Z,100931.53
2022-08-26T02:55:24.717Z,100932.41
2022-08-26T02:57:52.419Z,100931.16
2022-08-26T03:00:19.847Z,100928.38
2022-08-26T03:02:47.105Z,100934.66
2022-08-26T03:05:16.715Z,100932.22
2022-08-26T03:07:44.176Z,100929.59
2022-08-26T03:10:13.197Z,100923.16
2022-08-26T03:12:42.972Z,100921.72
2022-08-26T03:15:17.929Z,100928.91
2022-08-26T03:17:50.235Z,100913.22
2022-08-26T03:20:18.676Z,100908.69
2022-08-26T03:22:46.129Z,100911.88
2022-08-26T03:25:15.791Z,100912.25
2022-08-26T03:27:43.228Z,100910.19
2022-08-26T03:30:31.175Z,100909.28
2022-08-26T03:32:58.877Z,100904.00
2022-08-26T03:35:26.582Z,100901.09
2022-08-26T03:37:53.877Z,100890.94
2022-08-26T03:40:21.661Z,100890.84
2022-08-26T03:42:50.896Z,100901.19
2022-08-26T03:45:19.840Z,100900.09
2022-08-26T03:47:48.051Z,100898.72
2022-08-26T03:50:22.582Z,100904.22
2022-08-26T03:52:51.614Z,100895.00
2022-08-26T03:55:23.668Z,100890.91
2022-08-26T03:57:52.161Z,100887.97
2022-08-26T04:00:19.713Z,100892.19
2022-08-26T04:02:51.066Z,100894.34
2022-08-26T04:05:22.711Z,100896.66
2022-08-26T04:07:51.297Z,100888.06
2022-08-26T04:10:29.325Z,100885.88
2022-08-26T04:12:59.276Z,100888.19
2022-08-26T04:15:27.173Z,100896.88
2022-08-26T04:17:55.835Z,100891.03
2022-08-26T04:20:25.059Z,100894.09
2022-08-26T04:22:52.969Z,100888.91
2022-08-26T04:25:20.502Z,100899.22
2022-08-26T04:27:48.504Z,100899.91
2022-08-26T04:30:16.726Z,100902.44
2022-08-26T04:32:44.386Z,100896.19
2022-08-26T04:35:11.660Z,100894.53
2022-08-26T04:37:40.143Z,100891.47
2022-08-26T04:40:11.143Z,100894.00
2022-08-26T04:42:39.753Z,100889.41
2022-08-26T04:45:10.152Z,100894.03
2022-08-26T04:47:37.814Z,100895.44
2022-08-26T04:50:07.473Z,100889.13
2022-08-26T04:52:36.246Z,100890.16
2022-08-26T04:55:05.996Z,100902.91
2022-08-26T04:57:35.049Z,100903.59
2022-08-26T05:00:08.312Z,100896.97
2022-08-26T05:02:36.218Z,100907.13
2022-08-26T05:05:04.531Z,100900.47
2022-08-26T05:07:31.892Z,100898.19
2022-08-26T05:09:59.136Z,100905.59
2022-08-26T05:12:27.899Z,100899.97
2022-08-26T05:14:55.359Z,100905.94
2022-08-26T05:17:22.751Z,100905.84
2022-08-26T05:19:50.708Z,100909.38
2022-08-26T05:22:18.311Z,100901.72
2022-08-26T05:24:46.471Z,100908.63
2022-08-26T05:27:14.336Z,100915.88
2022-08-26T05:29:42.406Z,100912.16
2022-08-26T05:32:11.589Z,100908.84
2022-08-26T05:34:38.811Z,100920.00
2022-08-26T05:37:06.776Z,100913.69
2022-08-26T05:39:34.364Z,100902.03
2022-08-26T05:42:02.218Z,100915.47
2022-08-26T05:44:29.585Z,100905.53
2022-08-26T05:47:16.763Z,100906.16
2022-08-26T05:49:49.474Z,100915.44
2022-08-26T05:52:19.827Z,100915.81
2022-08-26T05:54:47.752Z,100917.50
2022-08-26T05:57:15.564Z,100927.47
2022-08-26T05:59:42.789Z,100933.22
2022-08-26T06:02:10.250Z,100932.69
2022-08-26T06:04:37.512Z,100933.06
2022-08-26T06:07:05.496Z,100930.09
2022-08-26T06:09:38.611Z,100935.16
2022-08-26T06:12:06.054Z,100935.66
2022-08-26T06:14:33.416Z,100938.03
2022-08-26T06:17:00.842Z,100929.78
2022-08-26T06:19:32.906Z,100934.31
2022-08-26T06:22:23.442Z,100936.50
2022-08-26T06:25:09.945Z,100933.13
2022-08-26T06:27:37.332Z,100926.00
2022-08-26T06:30:05.155Z,100923.41
2022-08-26T06:32:33.563Z,100927.88
2022-08-26T06:35:00.911Z,100934.25
2022-08-26T06:37:28.799Z,100924.09
2022-08-26T06:39:56.585Z,100922.50
2022-08-26T06:42:25.176Z,100917.41
2022-08-26T06:44:52.515Z,100921.22
2022-08-26T06:47:19.727Z,100920.03
2022-08-26T06:49:47.195Z,100913.00
2022-08-26T06:52:21.196Z,100915.38
2022-08-26T06:54:51.588Z,100920.22
2022-08-26T06:57:20.311Z,100915.78
2022-08-26T06:59:48.757Z,100922.09
2022-08-26T07:02:18.731Z,100926.78
2022-08-26T07:04:47.759Z,100935.19
2022-08-26T07:07:15.885Z,100933.63
2022-08-26T07:09:43.393Z,100936.91
2022-08-26T07:12:10.691Z,100940.38
2022-08-26T07:14:38.485Z,100938.25
2022-08-26T07:17:08.506Z,100934.72
2022-08-26T07:19:38.306Z,100941.34
2022-08-26T07:22:06.964Z,100938.81
2022-08-26T07:24:38.511Z,100943.72
2022-08-26T07:27:09.731Z,100946.59
2022-08-26T07:29:39.485Z,100940.06
2022-08-26T07:32:08.115Z,100946.78
2022-08-26T07:34:37.829Z,100946.44
2022-08-26T07:37:05.978Z,100941.38
2022-08-26T07:39:36.506Z,100942.50
2022-08-26T07:42:07.745Z,100944.16
2022-08-26T07:44:37.465Z,100946.66
2022-08-26T07:47:10.203Z,100948.47
2022-08-26T07:49:52.649Z,100955.84
2022-08-26T07:52:25.316Z,100953.84
2022-08-26T07:54:54.354Z,100947.69
2022-08-26T07:57:21.683Z,100945.31
2022-08-26T07:59:52.202Z,100947.94
2022-08-26T08:02:23.177Z,100941.00
2022-08-26T08:04:51.662Z,100943.38
2022-08-26T08:07:19.014Z,100945.91
2022-08-26T08:09:49.624Z,100938.47
2022-08-26T08:12:20.102Z,100945.66
2022-08-26T08:14:48.759Z,100941.91
2022-08-26T08:17:25.108Z,100941.78
2022-08-26T08:19:52.384Z,100940.63
2022-08-26T08:22:24.100Z,100934.72
2022-08-26T08:24:53.066Z,100945.31
2022-08-26T08:27:23.814Z,100946.31
2022-08-26T08:29:54.405Z,100946.81
2022-08-26T08:32:23.672Z,100941.34
2022-08-26T08:34:51.211Z,100948.28
2022-08-26T08:37:18.958Z,100948.63
2022-08-26T08:39:46.331Z,100949.88
2022-08-26T08:42:43.689Z,100950.28
2022-08-26T08:45:30.447Z,100945.44
2022-08-26T08:48:02.708Z,100949.72
2022-08-26T08:50:42.870Z,100939.50
2022-08-26T08:53:22.840Z,100936.97
2022-08-26T08:56:07.984Z,100943.25
2022-08-26T08:58:49.155Z,100938.75
2022-08-26T09:01:28.146Z,100933.00
2022-08-26T09:04:17.253Z,100929.72
2022-08-26T09:06:47.148Z,100926.66
2022-08-26T09:09:23.712Z,100920.63
2022-08-26T09:11:51.123Z,100914.38
2022-08-26T09:14:18.763Z,100911.06
2022-08-26T09:17:07.328Z,100912.75
2022-08-26T09:19:43.209Z,100914.03
2022-08-26T09:22:10.711Z,100908.88
2022-08-26T09:24:42.117Z,100908.00
2022-08-26T09:27:53.735Z,100900.50
2022-08-26T09:30:26.878Z,100894.44
2022-08-26T09:33:10.792Z,100900.09
2022-08-26T09:35:41.247Z,100896.34
2022-08-26T09:38:26.840Z,100896.94
2022-08-26T09:41:05.122Z,100894.44
2022-08-26T09:43:32.860Z,100898.63
2022-08-26T09:46:23.276Z,100890.28
2022-08-26T09:48:51.807Z,100885.84
2022-08-26T09:51:22.439Z,100880.84
2022-08-26T09:53:52.288Z,100879.81
2022-08-26T09:56:34.918Z,100888.38
2022-08-26T09:59:04.657Z,100887.53
2022-08-26T10:01:38.245Z,100887.13
2022-08-26T10:04:10.380Z,100880.44
2022-08-26T10:06:54.494Z,100884.81
2022-08-26T10:09:23.538Z,100879.13
2022-08-26T10:11:55.139Z,100875.16
2022-08-26T10:14:28.088Z,100868.22
2022-08-26T10:17:17.003Z,100870.94
2022-08-26T10:19:56.855Z,100866.53
2022-08-26T10:22:37.696Z,100850.81
2022-08-26T10:25:09.943Z,100858.53
2022-08-26T10:27:53.437Z,100853.72
2022-08-26T10:30:23.695Z,100853.50
2022-08-26T10:33:14.538Z,100853.50
2022-08-26T10:36:05.975Z,100860.63
2022-08-26T10:38:37.660Z,100851.84
2022-08-26T10:41:16.795Z,100848.22
2022-08-26T10:43:50.084Z,100842.78
2022-08-26T10:46:22.431Z,100838.56
2022-08-26T10:49:00.279Z,100840.72
2022-08-26T10:51:38.637Z,100848.25
2022-08-26T10:54:17.973Z,100840.44
2022-08-26T10:56:57.179Z,100838.13
2022-08-26T10:59:47.385Z,100832.88
2022-08-26T11:02:47.185Z,100830.38
2022-08-26T11:05:23.972Z,100835.25
2022-08-26T11:07:56.046Z,100825.44
2022-08-26T11:10:24.288Z,100816.97
2022-08-26T11:13:03.732Z,100815.34
2022-08-26T11:15:31.549Z,100817.63
2022-08-26T11:18:07.949Z,100818.81
2022-08-26T11:20:46.001Z,100819.53
2022-08-26T11:23:20.475Z,100810.06
2022-08-26T11:26:10.073Z,100799.66
2022-08-26T11:28:49.788Z,100803.56
2022-08-26T11:31:26.115Z,100806.78
2022-08-26T11:34:01.239Z,100802.94
2022-08-26T11:36:32.759Z,100791.84
2022-08-26T11:39:03.363Z,100793.75
2022-08-26T11:41:31.873Z,100791.03
2022-08-26T11:43:59.720Z,100794.13
2022-08-26T11:46:35.671Z,100795.25
2022-08-26T11:49:06.424Z,100780.47
2022-08-26T11:51:40.097Z,100787.03
2022-08-26T11:54:30.702Z,100776.47
2022-08-26T11:57:09.485Z,100778.19
2022-08-26T11:59:42.326Z,100778.19
2022-08-26T12:02:17.786Z,100773.16
2022-08-26T12:04:48.780Z,100771.91
2022-08-26T12:07:18.451Z,100766.50
2022-08-26T12:10:02.237Z,100767.16
2022-08-26T12:12:34.957Z,100768.50
2022-08-26T12:15:14.669Z,100758.78
2022-08-26T12:17:43.860Z,100761.03
2022-08-26T12:20:45.734Z,100761.06
2022-08-26T12:23:41.163Z,100751.44
2022-08-26T12:26:11.504Z,100750.72
2022-08-26T12:28:44.550Z,100739.13
2022-08-26T12:31:19.358Z,100740.88
2022-08-26T12:33:48.872Z,100739.34
2022-08-26T12:36:27.517Z,100728.13
2022-08-26T12:38:58.287Z,100722.66
2022-08-26T12:41:59.782Z,100721.06
2022-08-26T12:44:53.191Z,100715.81
2022-08-26T12:47:42.174Z,100710.91
2022-08-26T12:50:18.983Z,100715.97
2022-08-26T12:53:25.025Z,100699.06
2022-08-26T12:55:54.562Z,100691.31
2022-08-26T12:58:32.835Z,100691.16
2022-08-26T13:01:06.455Z,100681.66
2022-08-26T13:03:33.742Z,100687.47
2022-08-26T13:06:22.634Z,100673.25
2022-08-26T13:08:53.074Z,100682.50
2022-08-26T13:11:24.915Z,100675.66
2022-08-26T13:14:07.972Z,100681.88
2022-08-26T13:16:36.614Z,100669.38
2022-08-26T13:19:10.428Z,100676.00
2022-08-26T13:21:43.996Z,100675.09
2022-08-26T13:24:14.523Z,100675.91
2022-08-26T13:26:43.792Z,100663.50
2022-08-26T13:29:12.529Z,100670.81
2022-08-26T13:31:42.107Z,100664.19
2022-08-26T13:34:12.067Z,100662.63
2022-08-26T13:36:39.266Z,100663.69
2022-08-26T13:39:06.873Z,100654.19
2022-08-26T13:41:34.427Z,100656.53
2022-08-26T13:44:01.816Z,100649.69
2022-08-26T13:46:29.518Z,100649.09
2022-08-26T13:48:57.728Z,100650.50
2022-08-26T13:51:25.987Z,100645.47
2022-08-26T13:53:53.725Z,100653.63
2022-08-26T13:56:21.816Z,100644.13
2022-08-26T13:58:49.475Z,100640.78
2022-08-26T14:01:17.559Z,100641.69
2022-08-26T14:03:46.141Z,100635.28
2022-08-26T14:06:13.652Z,100630.06
2022-08-26T14:08:43.038Z,100629.63
2022-08-26T14:11:10.719Z,100625.63
2022-08-26T14:13:39.187Z,100621.72
2022-08-26T14:16:14.522Z,100621.59
2022-08-26T14:18:48.585Z,100611.91
2022-08-26T14:21:18.474Z,100606.22
2022-08-26T14:23:45.742Z,100608.16
2022-08-26T14:26:16.807Z,100609.94
2022-08-26T14:28:55.221Z,100612.53
2022-08-26T14:31:23.857Z,100609.66
2022-08-26T14:33:51.252Z,100605.63
2022-08-26T14:36:33.865Z,100595.75
2022-08-26T14:39:10.090Z,100590.13
2022-08-26T14:41:45.871Z,100593.78
2022-08-26T14:44:24.499Z,100582.50
2022-08-26T14:46:53.122Z,100589.50
2022-08-26T14:49:22.463Z,100587.19
2022-08-26T14:51:50.443Z,100580.66
2022-08-26T14:54:19.060Z,100577.03
2022-08-26T14:56:51.247Z,100575.91
2022-08-26T14:59:25.423Z,100578.84
2022-08-26T15:01:54.363Z,100585.75
2022-08-26T15:04:23.052Z,100578.66
2022-08-26T15:06:51.721Z,100579.53
2022-08-26T15:09:19.848Z,100580.13
2022-08-26T15:11:47.806Z,100581.31
2022-08-26T15:14:19.505Z,100584.91
2022-08-26T15:16:51.168Z,100571.28
2022-08-26T15:19:18.810Z,100572.47
2022-08-26T15:21:47.152Z,100577.66
2022-08-26T15:24:17.003Z,100581.38
2022-08-26T15:26:45.274Z,100566.94
2022-08-26T15:29:12.930Z,100573.50
2022-08-26T15:31:42.288Z,100574.22
2022-08-26T15:34:16.025Z,100570.31
2022-08-26T15:36:46.234Z,100581.59
2022-08-26T15:39:15.218Z,100587.22
2022-08-26T15:41:42.622Z,100583.41
2022-08-26T15:44:10.824Z,100591.81
2022-08-26T15:46:39.136Z,100587.63
2022-08-26T15:49:07.679Z,100597.78
2022-08-26T15:51:45.554Z,100593.56
2022-08-26T15:54:14.167Z,100599.91
2022-08-26T15:56:41.565Z,100597.41
2022-08-26T15:59:11.718Z,100604.69
2022-08-26T16:01:39.939Z,100605.00
2022-08-26T16:04:07.363Z,100610.16
2022-08-26T16:06:37.394Z,100601.59
2022-08-26T16:09:05.803Z,100606.22
2022-08-26T16:11:34.464Z,100612.03
2022-08-26T16:14:02.385Z,100604.81
2022-08-26T16:16:29.708Z,100605.00
2022-08-26T16:18:57.025Z,100607.63
2022-08-26T16:21:30.391Z,100608.69
2022-08-26T16:23:58.675Z,100609.63
2022-08-26T16:26:29.156Z,100604.88
2022-08-26T16:28:56.403Z,100610.44
2022-08-26T16:31:24.072Z,100606.63
2022-08-26T16:33:51.455Z,100604.81
2022-08-26T16:36:19.849Z,100609.03
2022-08-26T16:38:53.300Z,100609.50
2022-08-26T16:41:21.355Z,100603.16
2022-08-26T16:43:48.872Z,100611.22
2022-08-26T16:46:16.370Z,100608.56
2022-08-26T16:48:44.623Z,100611.00
2022-08-26T16:51:16.298Z,100608.34
2022-08-26T16:53:45.770Z,100610.41
2022-08-26T16:56:19.123Z,100617.56
2022-08-26T16:58:48.247Z,100609.34
2022-08-26T17:01:16.675Z,100607.28
2022-08-26T17:03:43.927Z,100599.31
2022-08-26T17:06:11.432Z,100595.75
2022-08-26T17:08:41.021Z,100595.97
2022-08-26T17:11:09.075Z,100592.50
2022-08-26T17:13:39.070Z,100596.06
2022-08-26T17:16:08.085Z,100594.41
2022-08-26T17:18:36.327Z,100591.91
2022-08-26T17:21:06.429Z,100593.56
2022-08-26T17:23:34.080Z,100597.59
2022-08-26T17:26:01.326Z,100596.16
2022-08-26T17:28:28.668Z,100594.00
2022-08-26T17:30:57.733Z,100594.72
2022-08-26T17:33:25.836Z,100586.38
2022-08-26T17:35:53.831Z,100590.00
2022-08-26T17:38:22.060Z,100587.13
2022-08-26T17:40:49.753Z,100590.72
2022-08-26T17:43:18.031Z,100589.94
2022-08-26T17:45:45.335Z,100590.63
2022-08-26T17:48:13.081Z,100587.06
2022-08-26T17:50:42.194Z,100592.38
2022-08-26T17:53:18.423Z,100587.81
2022-08-26T17:55:47.987Z,100597.44
2022-08-26T17:58:23.367Z,100592.03
2022-08-26T18:00:52.472Z,100598.59
2022-08-26T18:03:19.700Z,100594.88
2022-08-26T18:05:49.091Z,100593.44
2022-08-26T18:08:16.422Z,100604.16
2022-08-26T18:10:44.711Z,100597.09
2022-08-26T18:13:12.356Z,100600.88
2022-08-26T18:15:43.955Z,100595.28
2022-08-26T18:18:12.939Z,100595.31
2022-08-26T18:20:41.866Z,100591.81
2022-08-26T18:23:09.693Z,100596.91
2022-08-26T18:25:41.461Z,100590.84
2022-08-26T18:28:09.222Z,100588.59
2022-08-26T18:30:37.001Z,100590.75
2022-08-26T18:33:04.364Z,100591.38
2022-08-26T18:35:31.579Z,100592.44
2022-08-26T18:38:10.439Z,100591.84
2022-08-26T18:40:41.958Z,100596.25
2022-08-26T18:43:09.608Z,100593.56
2022-08-26T18:45:37.636Z,100592.72
2022-08-26T18:48:05.417Z,100595.88
2022-08-26T18:50:32.769Z,100600.69
2022-08-26T18:53:02.448Z,100593.56
2022-08-26T18:55:29.720Z,100608.44
2022-08-26T18:57:57.012Z,100610.53
2022-08-26T19:00:24.415Z,100613.72
2022-08-26T19:02:52.347Z,100615.78
2022-08-26T19:05:23.124Z,100611.63
2022-08-26T19:07:51.664Z,100608.06
2022-08-26T19:10:18.938Z,100617.94
2022-08-26T19:12:46.447Z,100612.06
2022-08-26T19:15:19.889Z,100617.31
2022-08-26T19:17:48.107Z,100621.06
2022-08-26T19:20:15.417Z,100625.69
2022-08-26T19:22:42.643Z,100627.16
2022-08-26T19:25:10.270Z,100626.75
2022-08-26T19:27:37.984Z,100629.91
2022-08-26T19:30:08.520Z,100632.41
2022-08-26T19:32:36.143Z,100629.25
2022-08-26T19:35:03.498Z,100632.19
2022-08-26T19:37:30.708Z,100636.38
2022-08-26T19:39:57.993Z,100643.50
2022-08-26T19:42:25.383Z,100641.84
2022-08-26T19:45:09.270Z,100640.59
2022-08-26T19:47:53.545Z,100643.09
2022-08-26T19:50:22.082Z,100646.66
2022-08-26T19:52:49.643Z,100640.38
2022-08-26T19:55:18.552Z,100650.41
2022-08-26T19:57:45.870Z,100652.31
2022-08-26T20:00:17.969Z,100657.31
2022-08-26T20:02:45.358Z,100643.91
2022-08-26T20:05:14.453Z,100646.22
2022-08-26T20:07:41.739Z,100656.25
2022-08-26T20:10:13.603Z,100657.28
2022-08-26T20:12:42.147Z,100652.94
2022-08-26T20:15:11.671Z,100658.34
2022-08-26T20:17:39.153Z,100663.72
2022-08-26T20:20:27.313Z,100667.69
2022-08-26T20:23:02.454Z,100662.06
2022-08-26T20:25:32.485Z,100657.66
2022-08-26T20:28:00.735Z,100659.72
2022-08-26T20:30:28.175Z,100660.97
2022-08-26T20:32:55.932Z,100658.88
2022-08-26T20:35:23.903Z,100660.31
2022-08-26T20:37:51.168Z,100659.69
2022-08-26T20:40:18.457Z,100662.81
2022-08-26T20:42:45.713Z,100656.56
2022-08-26T20:45:13.019Z,100659.06
2022-08-26T20:47:40.253Z,100655.09
2022-08-26T20:50:08.571Z,100652.13
2022-08-26T20:52:35.836Z,100656.09
2022-08-26T20:55:03.473Z,100647.53
2022-08-26T20:57:30.720Z,100646.44
2022-08-26T20:59:57.996Z,100654.16
2022-08-26T21:02:25.264Z,100655.63
2022-08-26T21:04:52.508Z,100655.63
2022-08-26T21:07:20.743Z,100657.28
2022-08-26T21:09:49.547Z,100651.66
2022-08-26T21:12:18.895Z,100650.25
2022-08-26T21:14:49.489Z,100657.09
2022-08-26T21:17:17.412Z,100662.31
2022-08-26T21:19:44.696Z,100661.88
2022-08-26T21:22:12.347Z,100655.56
2022-08-26T21:24:39.778Z,100652.84
2022-08-26T21:27:07.051Z,100669.72
2022-08-26T21:29:35.599Z,100660.09
2022-08-26T21:32:03.189Z,100658.38
2022-08-26T21:34:30.479Z,100660.91
2022-08-26T21:36:58.188Z,100666.69
2022-08-26T21:39:25.435Z,100665.00
2022-08-26T21:41:52.672Z,100659.53
2022-08-26T21:44:19.879Z,100665.50
2022-08-26T21:46:47.088Z,100668.97
2022-08-26T21:49:15.909Z,100672.31
2022-08-26T21:51:47.011Z,100657.84
2022-08-26T21:54:15.821Z,100662.31
2022-08-26T21:56:46.729Z,100662.94
2022-08-26T21:59:17.639Z,100654.81
2022-08-26T22:01:44.964Z,100660.44
2022-08-26T22:04:12.562Z,100661.22
2022-08-26T22:06:54.591Z,100668.00
2022-08-26T22:09:25.243Z,100661.28
2022-08-26T22:11:53.354Z,100669.50
2022-08-26T22:14:30.371Z,100663.44
2022-08-26T22:16:59.214Z,100660.50
2022-08-26T22:19:26.632Z,100665.91
2022-08-26T22:21:55.033Z,100660.00
2022-08-26T22:24:24.652Z,100664.34
2022-08-26T22:26:53.134Z,100656.22
2022-08-26T22:29:21.515Z,100649.94
2022-08-26T22:31:48.754Z,100655.53
2022-08-26T22:34:17.384Z,100660.28
2022-08-26T22:36:46.915Z,100655.53
2022-08-26T22:39:16.381Z,100652.84
2022-08-26T22:41:44.954Z,100653.63
2022-08-26T22:44:12.607Z,100655.91
2022-08-26T22:46:41.615Z,100660.69
2022-08-26T22:49:12.068Z,100667.34
2022-08-26T22:51:39.367Z,100663.53
2022-08-26T22:54:06.742Z,100669.34
2022-08-26T22:56:34.734Z,100670.47
2022-08-26T22:59:02.042Z,100670.47
2022-08-26T23:01:29.427Z,100671.09
2022-08-26T23:03:56.683Z,100671.72
2022-08-26T23:06:24.166Z,100666.78
2022-08-26T23:08:51.920Z,100666.97
2022-08-26T23:11:19.300Z,100663.53
2022-08-26T23:13:46.540Z,100673.09
2022-08-26T23:16:14.083Z,100654.69
2022-08-26T23:18:42.070Z,100656.78
2022-08-26T23:21:10.582Z,100654.25
2022-08-26T23:23:38.466Z,100650.69
2022-08-26T23:26:07.792Z,100650.91
2022-08-26T23:28:36.999Z,100651.25
2022-08-26T23:31:05.753Z,100653.41
2022-08-26T23:33:56.276Z,100656.31
2022-08-26T23:36:25.649Z,100660.69
2022-08-26T23:38:53.324Z,100657.13
2022-08-26T23:41:24.112Z,100663.25
2022-08-26T23:43:51.761Z,100658.19
2022-08-26T23:46:20.070Z,100660.00
2022-08-26T23:48:47.671Z,100660.00
2022-08-26T23:51:33.468Z,100664.94
2022-08-26T23:54:00.719Z,100660.09
2022-08-26T23:56:29.109Z,100662.81
2022-08-26T23:58:56.539Z,100662.34
